Time;durP1;ratioP1;P1;durP2;ratioP2;P2;SDS_P1;SDS_P2;PMS_P1;PMS_P2;Temp;Humidity;BMP_temperature;BMP_pressure;BME280_temperature;BME280_humidity;BME280_pressure;Samples;Min_cycle;Max_cycle;Signal;HPM_P1;HPM_P2
2021/08/09 00:01:59;;;;;;;17.27;3.65;;;;;;;15.21;77.31;101335.16;5051940;28;20033;-61
2021/08/09 00:04:25;;;;;;;13.27;3.95;;;;;;;15.16;77.60;101344.38;5052160;28;20052;-60
2021/08/09 00:06:50;;;;;;;18.15;3.65;;;;;;;15.11;78.02;101344.63;5051743;28;20036;-61
2021/08/09 00:09:16;;;;;;;18.38;4.13;;;;;;;15.07;77.81;101343.94;5051317;28;20549;-61
2021/08/09 00:11:41;;;;;;;18.10;4.03;;;;;;;15.02;78.35;101343.31;5051713;28;20040;-61
2021/08/09 00:14:06;;;;;;;16.08;4.40;;;;;;;15.02;78.82;101347.81;5052007;28;20032;-61
2021/08/09 00:16:32;;;;;;;16.38;4.50;;;;;;;15.01;78.59;101346.97;5051676;28;20021;-60
2021/08/09 00:18:57;;;;;;;15.52;3.70;;;;;;;15.01;78.61;101340.75;5051727;28;20048;-61
2021/08/09 00:21:22;;;;;;;14.50;3.90;;;;;;;15.02;78.70;101347.81;5051542;28;20423;-60
2021/08/09 00:23:48;;;;;;;14.90;3.70;;;;;;;15.05;78.73;101347.63;5051849;28;20402;-60
2021/08/09 00:26:14;;;;;;;15.40;3.85;;;;;;;15.04;78.89;101351.28;5051994;28;20387;-60
2021/08/09 00:28:39;;;;;;;13.25;3.78;;;;;;;15.03;78.64;101355.72;5051123;28;20056;-60
2021/08/09 00:31:04;;;;;;;18.30;4.57;;;;;;;14.99;78.97;101348.00;5051473;28;20044;-61
2021/08/09 00:33:30;;;;;;;20.25;4.05;;;;;;;14.99;79.15;101353.34;5051404;28;20086;-60
2021/08/09 00:35:55;;;;;;;19.85;4.20;;;;;;;15.01;79.25;101351.44;5051977;28;20025;-60
2021/08/09 00:38:20;;;;;;;15.38;3.75;;;;;;;15.04;78.87;101338.78;5054831;28;20032;-60
2021/08/09 00:40:46;;;;;;;17.38;3.40;;;;;;;15.09;78.84;101351.88;5041238;28;20082;-61
2021/08/09 00:43:12;;;;;;;16.63;4.15;;;;;;;15.12;78.65;101354.34;5055771;28;20090;-60
2021/08/09 00:45:38;;;;;;;15.02;3.50;;;;;;;15.11;78.82;101347.28;5055627;28;20105;-60
2021/08/09 00:48:03;;;;;;;15.48;3.92;;;;;;;15.08;79.08;101344.81;5055135;28;20033;-60
2021/08/09 00:50:29;;;;;;;18.58;4.18;;;;;;;15.11;78.72;101355.31;5055464;28;20029;-60
2021/08/09 00:52:55;;;;;;;23.33;4.20;;;;;;;15.12;78.78;101353.50;5034060;28;20032;-61
2021/08/09 00:55:20;;;;;;;19.23;3.80;;;;;;;15.10;78.97;101347.38;5035661;28;20034;-60
2021/08/09 00:57:45;;;;;;;14.60;3.75;;;;;;;15.14;78.60;101355.16;5035356;28;20033;-61
2021/08/09 01:00:11;;;;;;;22.38;3.90;;;;;;;15.13;79.01;101348.09;5041089;28;20029;-60
2021/08/09 01:02:37;;;;;;;14.38;4.05;;;;;;;15.14;78.97;101355.16;5054736;28;20055;-61
2021/08/09 01:05:04;;;;;;;16.90;3.80;;;;;;;15.14;78.57;101352.47;5054508;28;20037;-61
2021/08/09 01:07:54;;;;;;;16.63;3.63;;;;;;;15.10;78.63;101358.06;5053032;28;20144;-60
2021/08/09 01:10:35;;;;;;;17.95;3.80;;;;;;;15.05;79.16;101356.50;5055305;28;20100;-60
2021/08/09 01:13:05;;;;;;;23.92;4.43;;;;;;;15.02;79.21;101362.00;5054846;28;20033;-60
2021/08/09 01:15:37;;;;;;;15.73;3.63;;;;;;;14.98;79.10;101357.78;5054664;28;20025;-60
2021/08/09 01:18:04;;;;;;;19.70;4.10;;;;;;;14.96;79.13;101359.69;5054754;28;20025;-60
2021/08/09 01:20:49;;;;;;;18.90;4.07;;;;;;;14.94;79.35;101347.41;5054825;28;20029;-60
2021/08/09 01:23:36;;;;;;;16.92;3.97;;;;;;;14.95;79.33;101363.31;5054424;28;20021;-61
2021/08/09 01:26:36;;;;;;;16.90;4.47;;;;;;;14.94;79.57;101360.72;5054510;28;20040;-61
2021/08/09 01:29:06;;;;;;;13.88;3.53;;;;;;;14.93;79.69;101369.66;5054858;28;20025;-61
2021/08/09 01:31:40;;;;;;;21.00;4.00;;;;;;;14.90;79.57;101357.38;5054880;28;20033;-60
2021/08/09 01:34:07;;;;;;;16.17;3.90;;;;;;;14.90;79.82;101357.38;5053927;28;20033;-61
2021/08/09 01:36:33;;;;;;;17.02;4.13;;;;;;;14.88;79.82;101367.25;5054245;28;20024;-61
2021/08/09 01:39:00;;;;;;;13.52;3.83;;;;;;;14.85;79.94;101367.41;5054360;28;20025;-61
2021/08/09 01:41:26;;;;;;;16.60;4.18;;;;;;;14.88;79.65;101364.56;5054372;28;20029;-60
2021/08/09 01:43:52;;;;;;;22.70;4.03;;;;;;;14.91;79.34;101377.72;5054224;28;20390;-60
2021/08/09 01:46:19;;;;;;;21.75;4.57;;;;;;;14.93;79.19;101369.66;5054429;28;20074;-65
2021/08/09 01:48:46;;;;;;;14.50;3.90;;;;;;;14.93;79.28;101378.50;5053383;28;20043;-61
2021/08/09 01:51:13;;;;;;;18.42;4.07;;;;;;;14.93;79.19;101383.84;5054444;28;20028;-61
2021/08/09 01:53:39;;;;;;;14.38;3.78;;;;;;;14.90;78.96;101376.88;5054136;28;20068;-61
2021/08/09 01:56:05;;;;;;;18.02;3.92;;;;;;;14.87;79.16;101376.19;5054371;28;20021;-61
2021/08/09 01:58:30;;;;;;;14.40;3.40;;;;;;;14.84;79.24;101379.88;5054070;28;20036;-60
2021/08/09 02:00:55;;;;;;;18.90;3.60;;;;;;;14.80;79.33;101372.16;5054340;28;20112;-60
2021/08/09 02:03:21;;;;;;;15.63;3.40;;;;;;;14.80;79.16;101378.31;5054298;28;20033;-60
2021/08/09 02:05:46;;;;;;;16.45;4.00;;;;;;;14.74;79.49;101384.88;5053619;28;20080;-60
2021/08/09 02:08:13;;;;;;;12.35;3.42;;;;;;;14.75;79.34;101377.72;5054245;28;20032;-61
2021/08/09 02:10:39;;;;;;;14.27;3.65;;;;;;;14.74;79.08;101378.66;5053945;28;20088;-60
2021/08/09 02:13:12;;;;;;;13.98;3.38;;;;;;;14.73;79.05;101376.91;5053955;28;20040;-60
2021/08/09 02:16:22;;;;;;;19.92;3.67;;;;;;;14.74;78.89;101383.97;5053396;28;20066;-61
2021/08/09 02:18:56;;;;;;;14.88;3.38;;;;;;;14.74;78.74;101398.19;4992629;28;20070;-58
2021/08/09 02:21:28;;;;;;;15.48;3.85;;;;;;;14.73;78.63;101393.78;4991610;28;20523;-60
2021/08/09 02:23:59;;;;;;;13.15;3.72;;;;;;;14.73;78.69;101393.78;4992161;28;20127;-60
2021/08/09 02:26:30;;;;;;;18.88;3.80;;;;;;;14.72;78.74;101385.88;4991604;28;20042;-61
2021/08/09 02:29:04;;;;;;;15.02;3.42;;;;;;;14.72;78.73;101392.06;4992071;28;20126;-60
2021/08/09 02:31:31;;;;;;;17.98;3.75;;;;;;;14.72;78.42;101389.41;4992228;28;20412;-60
2021/08/09 02:33:57;;;;;;;17.52;3.85;;;;;;;14.70;78.92;101395.75;5011664;28;20045;-60
2021/08/09 02:36:23;;;;;;;19.00;3.65;;;;;;;14.72;78.70;101385.88;5011534;28;20034;-60
2021/08/09 02:38:50;;;;;;;15.38;3.45;;;;;;;14.69;79.08;101399.34;5011534;28;20042;-59
2021/08/09 02:41:16;;;;;;;14.23;3.30;;;;;;;14.69;79.02;101394.03;4999740;28;20138;-59
2021/08/09 02:43:41;;;;;;;15.00;3.38;;;;;;;14.68;78.91;101390.50;4991859;28;20121;-60
2021/08/09 02:46:06;;;;;;;12.55;3.50;;;;;;;14.64;79.44;101402.28;4991903;28;20066;-60
2021/08/09 02:48:32;;;;;;;14.23;3.60;;;;;;;14.67;79.03;101398.59;4991588;28;20035;-60
2021/08/09 02:50:58;;;;;;;13.65;3.47;;;;;;;14.65;79.36;101398.66;4990679;28;20030;-63
2021/08/09 02:53:25;;;;;;;15.00;3.63;;;;;;;14.64;79.25;101396.97;5038757;28;20131;-60
2021/08/09 02:55:54;;;;;;;15.80;4.18;;;;;;;14.64;79.43;101394.28;5053313;28;20074;-60
2021/08/09 02:58:21;;;;;;;15.88;4.10;;;;;;;14.62;79.65;101400.63;5053145;28;20344;-60
2021/08/09 03:00:47;;;;;;;11.15;3.50;;;;;;;14.60;79.69;101398.00;5052066;28;20025;-59
2021/08/09 03:03:12;;;;;;;19.20;3.40;;;;;;;14.58;79.83;101400.75;5052546;28;20033;-61
2021/08/09 03:05:39;;;;;;;16.10;3.50;;;;;;;14.61;79.88;101399.75;5052784;28;20550;-61
2021/08/09 03:08:09;;;;;;;15.43;3.72;;;;;;;14.61;79.96;101390.91;5052667;28;20108;-60
2021/08/09 03:10:34;;;;;;;15.25;3.42;;;;;;;14.61;80.01;101396.22;5053077;28;20127;-60
2021/08/09 03:12:59;;;;;;;16.70;3.72;;;;;;;14.59;80.13;101393.63;5052457;28;20032;-60
2021/08/09 03:15:25;;;;;;;18.48;3.58;;;;;;;14.60;80.10;101395.34;5052897;28;20063;-60
2021/08/09 03:17:51;;;;;;;18.60;4.30;;;;;;;14.59;80.09;101398.94;5052874;28;20045;-60
2021/08/09 03:20:16;;;;;;;16.00;3.88;;;;;;;14.59;80.28;101397.16;5052626;28;20103;-59
2021/08/09 03:22:41;;;;;;;14.88;3.78;;;;;;;14.55;80.45;101392.94;5052050;28;20024;-60
2021/08/09 03:25:07;;;;;;;18.63;3.90;;;;;;;14.53;80.75;101396.63;5052560;28;20025;-60
2021/08/09 03:27:32;;;;;;;15.02;3.90;;;;;;;14.53;80.51;101394.81;5052400;28;20033;-60
2021/08/09 03:29:58;;;;;;;20.50;5.00;;;;;;;14.53;80.60;101402.81;5052839;28;20037;-61
2021/08/09 03:32:23;;;;;;;13.95;3.47;;;;;;;14.55;80.67;101413.38;5052284;28;20056;-61
2021/08/09 03:34:48;;;;;;;17.08;3.78;;;;;;;14.52;80.85;101411.75;5052058;28;20021;-61
2021/08/09 03:37:14;;;;;;;19.73;4.00;;;;;;;14.50;80.99;101405.66;5052453;28;20036;-60
2021/08/09 03:39:39;;;;;;;14.40;4.47;;;;;;;14.49;80.98;101409.25;5052262;28;20056;-61
2021/08/09 03:42:04;;;;;;;19.35;3.95;;;;;;;14.45;81.25;101399.69;5052601;28;20114;-60
2021/08/09 03:44:30;;;;;;;19.15;4.45;;;;;;;14.46;81.19;101400.53;5051695;28;20024;-60
2021/08/09 03:46:55;;;;;;;18.80;3.90;;;;;;;14.46;81.41;101404.06;5052257;28;20033;-60
2021/08/09 03:49:20;;;;;;;16.33;4.18;;;;;;;14.46;81.28;101401.41;5052128;28;20078;-60
2021/08/09 03:51:46;;;;;;;18.70;4.20;;;;;;;14.42;81.69;101408.72;5052388;28;20360;-62
2021/08/09 03:54:11;;;;;;;14.27;3.72;;;;;;;14.45;81.65;101398.81;5051693;28;20114;-61
2021/08/09 03:56:36;;;;;;;18.00;4.32;;;;;;;14.43;81.59;101404.22;5051617;28;20116;-60
2021/08/09 03:59:02;;;;;;;22.20;4.95;;;;;;;14.44;81.66;101395.31;5052529;28;20128;-61
2021/08/09 04:01:28;;;;;;;15.60;3.50;;;;;;;14.49;81.60;101408.38;5052243;28;20108;-60
2021/08/09 04:03:53;;;;;;;16.50;3.72;;;;;;;14.47;81.34;101411.13;5051730;28;20483;-61
2021/08/09 04:06:20;;;;;;;15.73;3.40;;;;;;;14.48;81.57;101404.00;5052022;28;20028;-61
2021/08/09 04:08:48;;;;;;;17.48;4.32;;;;;;;14.49;81.36;101408.38;5051990;28;20029;-61
2021/08/09 04:11:13;;;;;;;13.23;3.40;;;;;;;14.48;81.38;101415.50;5051854;28;20025;-61
2021/08/09 04:13:38;;;;;;;16.33;4.20;;;;;;;14.53;81.12;101412.63;5051812;28;20033;-61
2021/08/09 04:16:04;;;;;;;14.98;3.70;;;;;;;14.53;81.23;101404.63;5051817;28;20421;-61
2021/08/09 04:18:29;;;;;;;20.73;3.95;;;;;;;14.50;81.27;101421.63;5052233;28;20037;-62
2021/08/09 04:20:55;;;;;;;15.95;3.72;;;;;;;14.52;81.12;101413.56;5052094;28;20088;-60
2021/08/09 04:23:20;;;;;;;16.90;3.70;;;;;;;14.51;81.19;101425.16;5051894;28;20467;-61
2021/08/09 04:25:45;;;;;;;23.05;4.20;;;;;;;14.52;81.33;101424.22;5051055;28;20071;-60
2021/08/09 04:28:11;;;;;;;15.25;3.33;;;;;;;14.51;81.13;101420.66;5051705;28;20087;-60
2021/08/09 04:30:36;;;;;;;19.80;3.80;;;;;;;14.51;81.00;101430.47;5052056;28;20473;-61
2021/08/09 04:33:03;;;;;;;16.25;3.83;;;;;;;14.51;81.07;101422.47;5051741;28;20475;-61
2021/08/09 04:35:29;;;;;;;12.50;3.28;;;;;;;14.52;80.92;101427.72;5051902;28;20048;-60
2021/08/09 04:37:54;;;;;;;20.00;3.70;;;;;;;14.55;80.54;101424.03;5051799;28;20068;-60
2021/08/09 04:40:20;;;;;;;17.23;4.07;;;;;;;14.53;80.75;101423.28;5051627;28;20029;-61
2021/08/09 04:42:45;;;;;;;16.95;4.05;;;;;;;14.52;80.80;101429.53;5051706;28;20036;-61
2021/08/09 04:45:10;;;;;;;15.75;4.00;;;;;;;14.55;80.57;101424.91;5051875;28;20427;-61
2021/08/09 04:47:36;;;;;;;13.40;2.83;;;;;;;14.59;80.15;101428.25;5051474;28;20054;-61
2021/08/09 04:50:01;;;;;;;18.80;3.40;;;;;;;14.63;79.82;101427.19;5051175;28;20482;-61
2021/08/09 04:52:26;;;;;;;17.58;3.50;;;;;;;14.65;79.81;101432.47;5051193;28;20025;-61
2021/08/09 04:54:52;;;;;;;17.48;3.60;;;;;;;14.67;79.65;101435.91;5051422;28;20360;-61
2021/08/09 04:57:17;;;;;;;16.00;3.25;;;;;;;14.71;79.46;101437.47;5050912;28;20110;-60
2021/08/09 04:59:42;;;;;;;18.70;3.42;;;;;;;14.72;79.43;101439.19;5051355;28;20064;-60
2021/08/09 05:02:07;;;;;;;14.13;3.08;;;;;;;14.72;79.13;101436.53;5051599;28;20033;-61
2021/08/09 05:04:33;;;;;;;14.77;3.17;;;;;;;14.71;79.36;101430.31;5051568;28;20048;-60
2021/08/09 05:06:58;;;;;;;9.82;2.92;;;;;;;14.74;79.02;101430.19;5051166;28;20099;-61
2021/08/09 05:09:23;;;;;;;16.80;3.05;;;;;;;14.78;78.79;101435.34;5051092;28;20123;-60
2021/08/09 05:11:49;;;;;;;10.65;2.78;;;;;;;14.86;78.47;101434.00;5050999;28;20063;-61
2021/08/09 05:14:14;;;;;;;16.85;2.90;;;;;;;14.88;78.56;101429.41;5051494;28;20037;-61
2021/08/09 05:16:41;;;;;;;9.50;3.08;;;;;;;14.95;78.44;101435.31;5051656;28;20029;-61
2021/08/09 05:19:08;;;;;;;14.60;3.17;;;;;;;15.01;78.30;101420.75;5050689;28;20032;-61
2021/08/09 05:21:34;;;;;;;14.68;3.78;;;;;;;15.06;77.98;101432.03;5051041;28;20029;-61
2021/08/09 05:24:04;;;;;;;15.70;3.38;;;;;;;15.16;77.72;101430.59;5052135;28;20116;-61
2021/08/09 05:26:30;;;;;;;11.32;2.83;;;;;;;15.24;77.21;101430.16;5054648;28;20078;-61
2021/08/09 05:28:58;;;;;;;11.88;2.70;;;;;;;15.32;77.13;101422.63;5054583;28;20554;-63
2021/08/09 05:31:23;;;;;;;11.75;3.42;;;;;;;15.44;76.92;101430.91;5054613;28;20063;-60
2021/08/09 05:33:48;;;;;;;11.52;3.05;;;;;;;15.50;76.72;101436.75;5054803;28;20061;-59
2021/08/09 05:36:14;;;;;;;14.60;3.00;;;;;;;15.52;76.33;101431.31;5054722;28;20040;-61
2021/08/09 05:38:39;;;;;;;13.50;3.05;;;;;;;15.54;76.43;101435.63;5054310;28;20016;-61
2021/08/09 05:41:07;;;;;;;14.75;3.10;;;;;;;15.55;76.65;101439.16;5052456;28;20062;-61
2021/08/09 05:43:32;;;;;;;10.30;2.97;;;;;;;15.65;76.48;101444.81;5050079;28;20056;-59
2021/08/09 05:45:58;;;;;;;13.88;2.95;;;;;;;15.67;76.07;101445.63;5052615;28;20049;-60
2021/08/09 05:48:23;;;;;;;12.30;3.25;;;;;;;15.71;75.98;101449.81;5053959;28;20482;-60
2021/08/09 05:50:49;;;;;;;11.00;2.88;;;;;;;15.66;76.30;101454.56;5054458;28;20079;-61
2021/08/09 05:53:14;;;;;;;12.90;3.00;;;;;;;15.66;76.55;101455.41;5054992;28;20032;-60
2021/08/09 05:55:39;;;;;;;10.02;2.88;;;;;;;15.57;76.42;101445.25;5054495;28;20029;-59
2021/08/09 05:58:05;;;;;;;10.90;2.60;;;;;;;15.59;76.40;101459.41;5053701;28;20121;-60
2021/08/09 06:00:30;;;;;;;15.10;3.20;;;;;;;15.56;76.08;101451.53;5053026;28;20021;-60
2021/08/09 06:02:55;;;;;;;10.90;3.08;;;;;;;15.56;76.31;101460.44;5054364;28;20060;-60
2021/08/09 06:05:21;;;;;;;13.55;3.28;;;;;;;15.61;76.47;101459.31;5053889;28;20174;-59
2021/08/09 06:07:46;;;;;;;10.88;2.42;;;;;;;15.67;76.13;101469.63;5054471;28;20021;-59
2021/08/09 06:10:11;;;;;;;14.50;3.15;;;;;;;15.69;75.68;101463.25;5053810;28;20025;-58
2021/08/09 06:12:38;;;;;;;16.83;3.30;;;;;;;15.71;75.73;101465.84;5051792;28;20576;-59
2021/08/09 06:15:05;;;;;;;12.68;3.15;;;;;;;15.79;75.52;101462.72;5050414;28;20075;-59
2021/08/09 06:17:32;;;;;;;10.48;3.25;;;;;;;15.86;74.67;101456.13;5051437;28;20056;-60
2021/08/09 06:19:57;;;;;;;10.70;2.53;;;;;;;16.02;74.69;101464.13;5050963;28;20107;-61
2021/08/09 06:22:22;;;;;;;13.32;3.20;;;;;;;16.18;73.74;101456.09;5050346;28;20071;-59
2021/08/09 06:24:48;;;;;;;11.23;2.40;;;;;;;16.33;73.26;101455.19;5051292;28;20101;-60
2021/08/09 06:27:13;;;;;;;10.05;2.33;;;;;;;16.42;72.14;101447.53;5051317;28;20104;-61
2021/08/09 06:29:38;;;;;;;12.07;2.60;;;;;;;16.50;72.08;101456.81;5050919;28;20048;-60
2021/08/09 06:32:04;;;;;;;9.88;2.50;;;;;;;16.51;72.06;101449.69;5049526;28;20481;-58
2021/08/09 06:34:29;;;;;;;9.95;2.50;;;;;;;16.59;71.17;101455.41;5040726;28;20047;-61
2021/08/09 06:36:54;;;;;;;10.68;2.50;;;;;;;16.59;70.81;101451.91;5040252;28;20056;-60
2021/08/09 06:39:20;;;;;;;11.98;2.65;;;;;;;16.62;71.08;101449.03;5047553;28;20029;-60
2021/08/09 06:41:47;;;;;;;12.20;2.42;;;;;;;16.67;70.62;101452.28;5050642;28;20033;-60
2021/08/09 06:44:12;;;;;;;9.93;2.60;;;;;;;16.62;70.32;101454.38;5050736;28;20040;-58
2021/08/09 06:46:38;;;;;;;11.52;2.80;;;;;;;16.67;71.00;101454.94;5047201;28;20017;-60
2021/08/09 06:49:04;;;;;;;10.20;2.30;;;;;;;16.71;70.19;101456.47;5050131;28;20105;-60
2021/08/09 06:51:30;;;;;;;10.32;2.50;;;;;;;16.82;69.76;101458.50;5049086;28;20166;-60
2021/08/09 06:53:55;;;;;;;8.45;2.10;;;;;;;16.93;69.58;101465.91;5050046;28;20218;-59
2021/08/09 06:56:20;;;;;;;8.05;2.78;;;;;;;17.10;68.83;101454.16;5049904;28;20351;-59
2021/08/09 06:58:46;;;;;;;12.68;2.95;;;;;;;17.35;68.89;101465.03;5048705;28;20195;-61
2021/08/09 07:01:11;;;;;;;12.43;2.30;;;;;;;17.61;68.68;101459.81;5049479;28;20067;-59
2021/08/09 07:03:36;;;;;;;11.50;2.60;;;;;;;17.68;67.09;101461.13;5048931;28;20045;-58
2021/08/09 07:06:02;;;;;;;8.95;2.30;;;;;;;17.72;66.74;101461.78;5029494;28;20132;-60
2021/08/09 07:08:27;;;;;;;10.10;2.28;;;;;;;17.76;67.15;101463.34;5029669;28;20121;-61
2021/08/09 07:10:52;;;;;;;11.32;3.13;;;;;;;17.85;67.02;101459.16;5028873;28;20123;-60
2021/08/09 07:13:18;;;;;;;9.82;2.38;;;;;;;17.72;66.97;101460.94;5028592;28;20123;-61
2021/08/09 07:15:44;;;;;;;9.80;2.35;;;;;;;17.46;67.51;101467.00;5029178;28;20047;-60
2021/08/09 07:18:09;;;;;;;8.50;2.38;;;;;;;17.19;68.68;101465.13;5029408;28;20481;-61
2021/08/09 07:20:35;;;;;;;13.43;2.78;;;;;;;16.96;70.47;101461.22;5029626;28;20382;-61
2021/08/09 07:23:00;;;;;;;13.18;2.40;;;;;;;16.74;71.94;101467.00;5029383;28;20036;-60
2021/08/09 07:25:26;;;;;;;9.02;2.50;;;;;;;16.52;73.72;101460.28;5029487;28;20112;-61
2021/08/09 07:27:51;;;;;;;6.38;2.33;;;;;;;16.42;74.60;101468.94;5028918;28;20116;-61
2021/08/09 07:30:18;;;;;;;10.95;2.88;;;;;;;16.44;74.29;101472.38;5029442;28;20112;-61
2021/08/09 07:32:44;;;;;;;9.50;2.78;;;;;;;16.52;74.00;101470.97;5026596;28;20031;-60
2021/08/09 07:35:10;;;;;;;11.07;3.17;;;;;;;16.57;73.77;101467.16;5026002;28;20120;-61
2021/08/09 07:37:35;;;;;;;7.70;2.42;;;;;;;16.63;74.02;101475.66;5022154;28;20052;-60
2021/08/09 07:40:01;;;;;;;10.23;2.72;;;;;;;16.62;73.72;101465.06;5019207;28;20033;-61
2021/08/09 07:42:26;;;;;;;9.75;2.60;;;;;;;16.81;72.77;101472.84;5029709;28;20386;-60
2021/08/09 07:44:53;;;;;;;14.23;2.75;;;;;;;17.03;71.81;101472.41;5028497;28;20375;-60
2021/08/09 07:47:19;;;;;;;10.38;2.90;;;;;;;17.24;70.48;101464.84;5028614;28;20108;-61
2021/08/09 07:49:44;;;;;;;10.38;2.50;;;;;;;17.42;70.07;101467.34;5029038;28;20091;-60
2021/08/09 07:52:09;;;;;;;7.50;2.97;;;;;;;17.45;69.55;101462.59;5029238;28;22022;-63
2021/08/09 07:54:35;;;;;;;8.48;2.58;;;;;;;17.30;69.49;101464.47;5028541;28;20077;-60
2021/08/09 07:57:04;;;;;;;14.88;3.20;;;;;;;17.23;70.41;101468.47;5029314;28;20038;-66
2021/08/09 07:59:31;;;;;;;9.85;2.42;;;;;;;17.26;69.60;101460.25;5029293;28;20082;-61
2021/08/09 08:01:58;;;;;;;8.32;2.45;;;;;;;17.29;69.88;101462.75;5028737;28;20174;-62
2021/08/09 08:04:23;;;;;;;12.05;2.72;;;;;;;17.32;68.95;101467.03;5034591;28;20088;-62
2021/08/09 08:06:49;;;;;;;7.50;2.63;;;;;;;17.44;69.19;101460.03;5048821;28;20151;-62
2021/08/09 08:09:15;;;;;;;10.15;2.63;;;;;;;17.57;68.15;101450.28;5048538;28;20095;-62
2021/08/09 08:11:40;;;;;;;13.02;2.70;;;;;;;17.86;67.86;101455.53;5048091;28;20037;-62
2021/08/09 08:14:05;;;;;;;12.27;2.70;;;;;;;17.92;67.08;101454.28;5048614;28;20128;-61
2021/08/09 08:16:31;;;;;;;8.85;2.45;;;;;;;18.08;66.72;101454.13;5048326;28;20410;-60
2021/08/09 08:18:56;;;;;;;10.65;2.42;;;;;;;18.38;65.03;101456.56;5048718;28;20374;-61
2021/08/09 08:21:21;;;;;;;10.00;3.05;;;;;;;18.23;65.63;101450.41;5047407;28;20033;-63
2021/08/09 08:23:47;;;;;;;9.60;2.60;;;;;;;18.32;65.96;101449.78;5048228;28;20094;-61
2021/08/09 08:26:12;;;;;;;8.95;2.60;;;;;;;18.65;64.93;101444.91;5048988;28;20117;-60
2021/08/09 08:28:37;;;;;;;8.10;2.35;;;;;;;18.86;63.22;101445.22;5048369;28;20028;-61
2021/08/09 08:31:03;;;;;;;7.15;2.22;;;;;;;18.94;62.01;101460.81;5042015;28;20029;-63
2021/08/09 08:33:29;;;;;;;7.00;2.08;;;;;;;18.88;62.39;101469.28;5044507;28;20075;-62
2021/08/09 08:35:54;;;;;;;9.10;2.50;;;;;;;18.75;62.56;101456.72;5048515;28;20025;-64
2021/08/09 08:38:19;;;;;;;10.48;2.40;;;;;;;18.56;62.74;101459.81;5048497;28;20044;-62
2021/08/09 08:40:47;;;;;;;6.97;2.30;;;;;;;18.65;63.11;101453.81;5048653;28;20472;-59
2021/08/09 08:43:26;;;;;;;11.57;2.72;;;;;;;18.69;63.35;101446.41;5048082;28;20033;-59
2021/08/09 08:46:00;;;;;;;8.40;2.45;;;;;;;18.48;63.71;101464.88;5048654;28;20246;-61
2021/08/09 08:48:26;;;;;;;8.15;3.10;;;;;;;18.31;64.15;101464.19;5045097;28;20110;-62
2021/08/09 08:50:53;;;;;;;6.82;2.45;;;;;;;18.09;65.25;101461.22;5048673;28;20668;-61
2021/08/09 08:53:19;;;;;;;9.75;3.05;;;;;;;18.09;65.98;101464.75;5047586;28;20045;-61
2021/08/09 08:55:45;;;;;;;5.93;2.35;;;;;;;18.10;65.70;101468.31;5048893;28;20029;-60
2021/08/09 08:58:11;;;;;;;8.45;2.40;;;;;;;18.01;66.41;101467.09;5049006;28;20047;-60
2021/08/09 09:00:38;;;;;;;7.20;2.20;;;;;;;18.01;66.26;101465.25;5051306;28;20431;-60
2021/08/09 09:03:18;;;;;;;4.95;2.17;;;;;;;18.11;66.31;101472.72;5051375;28;20025;-61
2021/08/09 09:06:00;;;;;;;7.20;2.53;;;;;;;18.07;65.73;101473.84;5048075;28;20073;-59
2021/08/09 09:08:58;;;;;;;9.40;2.30;;;;;;;18.10;65.61;101474.50;5052260;28;20021;-63
2021/08/09 09:11:23;;;;;;;6.03;2.30;;;;;;;18.18;66.14;101480.25;4970965;28;20053;-62
2021/08/09 09:13:55;;;;;;;8.73;2.43;;;;;;;18.30;65.44;101480.34;4970719;28;20524;-62
2021/08/09 09:16:20;;;;;;;7.03;2.22;;;;;;;18.11;65.74;101476.25;4971285;28;20377;-63
2021/08/09 09:18:54;;;;;;;7.82;2.83;;;;;;;18.15;66.92;101485.78;4975847;28;20061;-61
2021/08/09 09:21:34;;;;;;;6.63;3.05;;;;;;;18.17;65.66;101474.94;4973929;28;20396;-61
2021/08/09 09:24:17;;;;;;;5.50;2.40;;;;;;;18.21;65.69;101476.50;4990474;28;20122;-60
2021/08/09 09:26:45;;;;;;;4.22;2.33;;;;;;;18.00;66.64;101470.72;4989851;28;20046;-60
2021/08/09 09:29:11;;;;;;;5.13;2.40;;;;;;;17.84;66.38;101471.72;4989460;28;20065;-62
2021/08/09 09:31:38;;;;;;;6.95;2.60;;;;;;;17.91;67.76;101482.88;4989339;28;20062;-59
2021/08/09 09:34:23;;;;;;;9.60;3.10;;;;;;;18.04;67.60;101482.97;4970109;28;20145;-65
2021/08/09 09:36:57;;;;;;;7.22;2.67;;;;;;;18.05;67.37;101478.47;4977803;28;20046;-62
2021/08/09 09:39:36;;;;;;;5.03;2.40;;;;;;;18.27;67.52;101472.53;4989737;28;20117;-62
2021/08/09 09:42:05;;;;;;;6.68;2.70;;;;;;;18.34;65.81;101488.09;4989916;28;20077;-62
2021/08/09 09:44:32;;;;;;;9.45;2.42;;;;;;;18.21;66.58;101473.81;4989779;28;20050;-60
2021/08/09 09:47:16;;;;;;;9.88;2.60;;;;;;;18.36;66.78;101477.25;5017420;28;20041;-61
2021/08/09 09:49:41;;;;;;;5.47;2.58;;;;;;;18.38;66.30;101480.72;5055315;28;20028;-58
2021/08/09 09:52:07;;;;;;;6.45;2.50;;;;;;;18.49;65.68;101474.59;5070793;28;20020;-59
2021/08/09 09:54:33;;;;;;;8.88;2.60;;;;;;;18.60;64.91;101485.47;5071022;28;20032;-61
2021/08/09 09:56:59;;;;;;;4.50;2.33;;;;;;;18.88;64.17;101475.50;5060914;28;20093;-62
2021/08/09 09:59:27;;;;;;;6.63;2.40;;;;;;;19.37;62.50;101463.13;5050630;28;20170;-60
2021/08/09 10:01:52;;;;;;;5.72;2.30;;;;;;;19.58;61.38;101466.09;5050535;28;20480;-60
2021/08/09 10:04:18;;;;;;;5.25;2.67;;;;;;;19.81;62.25;101474.28;5049517;28;20145;-62
2021/08/09 10:06:44;;;;;;;7.95;2.60;;;;;;;20.12;61.84;101464.81;5050917;28;20025;-60
2021/08/09 10:09:10;;;;;;;9.10;2.90;;;;;;;20.12;61.96;101474.72;5050936;28;20087;-60
2021/08/09 10:11:41;;;;;;;10.23;3.53;;;;;;;19.86;62.56;101469.47;5050227;28;20021;-60
2021/08/09 10:14:07;;;;;;;5.40;2.42;;;;;;;19.57;62.27;101480.47;5050312;28;20032;-59
2021/08/09 10:16:35;;;;;;;14.98;3.15;;;;;;;19.49;62.37;101478.34;5050863;28;20056;-61
2021/08/09 10:19:02;;;;;;;8.95;2.10;;;;;;;19.38;61.63;101486.31;5050482;28;20067;-61
2021/08/09 10:21:31;;;;;;;7.63;2.63;;;;;;;19.09;63.25;101474.97;5050292;28;20082;-62
2021/08/09 10:23:57;;;;;;;7.95;2.88;;;;;;;19.51;62.42;101483.59;5050747;28;20439;-61
2021/08/09 10:26:32;;;;;;;7.68;2.60;;;;;;;19.69;60.61;101483.25;5050834;28;20025;-61
2021/08/09 10:29:04;;;;;;;6.32;2.70;;;;;;;19.69;61.56;101481.41;5050270;28;20044;-61
2021/08/09 10:31:41;;;;;;;6.22;2.55;;;;;;;19.64;61.80;101483.56;5050348;28;20093;-60
2021/08/09 10:34:28;;;;;;;5.30;2.40;;;;;;;19.52;62.18;101495.22;5049622;28;20443;-60
2021/08/09 10:37:13;;;;;;;10.32;2.40;;;;;;;19.78;62.01;101480.75;5048614;28;20117;-60
2021/08/09 10:39:58;;;;;;;5.40;2.50;;;;;;;20.12;59.61;101480.94;5050327;28;20135;-60
2021/08/09 10:42:30;;;;;;;7.05;2.95;;;;;;;20.03;59.26;101478.94;5049858;28;20048;-60
2021/08/09 10:44:56;;;;;;;6.20;2.50;;;;;;;20.19;59.32;101480.47;5049908;28;20360;-61
2021/08/09 10:47:54;;;;;;;5.57;2.60;;;;;;;20.28;58.69;101483.34;5050013;28;20029;-60
2021/08/09 10:50:22;;;;;;;7.53;2.58;;;;;;;20.28;59.79;101482.47;5049173;28;20097;-60
2021/08/09 10:52:49;;;;;;;10.50;3.50;;;;;;;20.47;58.96;101468.47;5049682;28;20055;-60
2021/08/09 10:55:32;;;;;;;4.95;2.20;;;;;;;20.61;58.70;101460.22;5041089;28;20088;-59
2021/08/09 10:57:58;;;;;;;6.03;2.50;;;;;;;20.57;58.77;101461.41;5044265;28;20112;-62
2021/08/09 11:00:38;;;;;;;5.55;2.50;;;;;;;20.38;56.50;101453.88;5049768;28;20079;-61
2021/08/09 11:03:08;;;;;;;4.80;2.10;;;;;;;20.14;57.64;101467.38;5049888;28;20039;-61
2021/08/09 11:05:33;;;;;;;4.32;2.10;;;;;;;20.95;56.65;101452.19;5048933;28;20136;-59
2021/08/09 11:08:20;;;;;;;4.00;1.90;;;;;;;21.43;55.10;101466.38;5049467;28;20132;-62
2021/08/09 11:10:53;;;;;;;5.43;2.17;;;;;;;22.38;53.70;101470.31;5046396;28;20045;-61
2021/08/09 11:13:19;;;;;;;5.63;2.20;;;;;;;21.78;54.04;101470.75;5048696;28;20051;-61
2021/08/09 11:16:02;;;;;;;4.88;2.22;;;;;;;20.97;56.31;101465.53;5049288;28;20025;-60
2021/08/09 11:18:29;;;;;;;5.45;1.95;;;;;;;20.35;58.96;101478.34;5049098;28;20039;-61
2021/08/09 11:21:06;;;;;;;3.95;1.90;;;;;;;20.17;59.72;101485.09;5048877;28;20021;-61
2021/08/09 11:23:45;;;;;;;4.50;2.13;;;;;;;20.15;58.58;101474.47;5048154;28;20074;-62